Time;durP1;ratioP1;P1;durP2;ratioP2;P2;SDS_P1;SDS_P2;PMS_P1;PMS_P2;Temp;Humidity;BMP_temperature;BMP_pressure;BME280_temperature;BME280_humidity;BME280_pressure;Samples;Min_cycle;Max_cycle;Signal;HPM_P1;HPM_P2
2023/03/24 00:01:14;;;;;;;;;;;;;;;10.61;100.00;95006.56;5090491;28;19946;-76
2023/03/24 00:03:44;;;;;;;;;;;;;;;10.53;100.00;95003.69;5091285;28;19930;-76
2023/03/24 00:06:12;;;;;;;;;;;;;;;10.46;100.00;95005.13;5090996;28;19924;-76
2023/03/24 00:08:40;;;;;;;;;;;;;;;10.59;100.00;94998.88;5090627;28;19920;-76
2023/03/24 00:11:10;;;;;;;;;;;;;;;10.59;100.00;94991.13;5092430;28;19927;-75
2023/03/24 00:13:37;;;;;;;;;;;;;;;10.53;100.00;94994.19;5091072;28;19964;-76
2023/03/24 00:16:06;;;;;;;;;;;;;;;10.50;100.00;94991.81;5092709;28;20346;-76
2023/03/24 00:18:33;;;;;;;;;;;;;;;10.46;100.00;94982.63;5092230;28;20274;-76
2023/03/24 00:20:59;;;;;;;;;;;;;;;10.38;100.00;94990.13;5096609;28;19920;-76
2023/03/24 00:23:26;;;;;;;;;;;;;;;10.32;100.00;94983.66;5091537;28;19931;-76
2023/03/24 00:26:01;;;;;;;;;;;;;;;10.34;100.00;94986.13;5092353;28;19924;-75
2023/03/24 00:28:27;;;;;;;;;;;;;;;10.36;100.00;94971.31;5090060;28;20340;-76
2023/03/24 00:30:54;;;;;;;;;;;;;;;10.34;100.00;94970.59;5092665;28;19924;-76
2023/03/24 00:33:22;;;;;;;;;;;;;;;10.18;100.00;94981.22;5094396;28;19931;-76
2023/03/24 00:35:49;;;;;;;;;;;;;;;10.17;100.00;94977.81;5104669;28;19927;-75
2023/03/24 00:38:15;;;;;;;;;;;;;;;10.15;100.00;94978.88;5094536;28;20310;-75
2023/03/24 00:40:44;;;;;;;;;;;;;;;10.09;100.00;94974.16;5096514;28;19927;-75
2023/03/24 00:43:12;;;;;;;4.18;2.85;;;;;;;10.07;100.00;94976.84;5093748;28;19923;-76
2023/03/24 00:45:44;;;;;;;5.40;3.25;;;;;;;10.07;100.00;94966.50;5092703;28;20771;-76
2023/03/24 00:48:11;;;;;;;2.88;2.42;;;;;;;10.10;100.00;94961.09;5096675;28;20061;-76
2023/03/24 00:50:40;;;;;;;4.13;2.70;;;;;;;10.09;100.00;94961.22;5101672;28;20059;-76
2023/03/24 00:53:08;;;;;;;5.25;3.28;;;;;;;10.14;100.00;94951.34;5093182;28;20056;-76
2023/03/24 00:55:36;;;;;;;3.17;2.65;;;;;;;10.06;100.00;94945.91;5093560;28;20724;-75
2023/03/24 00:58:04;;;;;;;5.18;2.45;;;;;;;10.03;100.00;94943.56;5092104;28;20058;-76
2023/03/24 01:00:31;;;;;;;4.75;2.80;;;;;;;10.05;100.00;94936.50;5095421;28;20063;-76
2023/03/24 01:02:58;;;;;;;3.00;2.70;;;;;;;10.03;100.00;94928.03;5094385;28;20449;-76
2023/03/24 01:05:26;;;;;;;3.93;2.60;;;;;;;9.88;100.00;94928.22;5091872;28;21142;-76
2023/03/24 01:07:56;;;;;;;7.22;2.88;;;;;;;9.78;100.00;94934.19;5093608;28;20763;-75
2023/03/24 01:10:25;;;;;;;;;;;;;;;9.77;100.00;94932.53;5093897;28;20501;-76
2023/03/24 01:12:52;;;;;;;;;;;;;;;9.80;100.00;94924.56;5094977;28;19956;-75
2023/03/24 01:15:20;;;;;;;4.07;2.83;;;;;;;9.89;100.00;94931.63;5093377;28;19927;-76
2023/03/24 01:17:47;;;;;;;2.90;2.58;;;;;;;9.84;100.00;94924.22;5093682;28;20059;-76
2023/03/24 01:20:14;;;;;;;3.25;2.95;;;;;;;9.89;100.00;94905.75;5093123;28;20055;-75
2023/03/24 01:22:43;;;;;;;3.13;2.65;;;;;;;9.99;100.00;94901.56;5093063;28;20074;-76
2023/03/24 01:25:15;;;;;;;3.33;2.65;;;;;;;9.92;100.00;94902.97;5093529;28;20047;-76
2023/03/24 01:27:41;;;;;;;3.63;2.60;;;;;;;9.87;100.00;94902.47;5093176;28;20105;-75
2023/03/24 01:30:09;;;;;;;4.50;3.25;;;;;;;9.97;100.00;94900.84;5091086;28;20055;-76
2023/03/24 01:32:36;;;;;;;9.85;2.50;;;;;;;9.96;100.00;94903.56;5090588;28;20498;-76
2023/03/24 01:35:02;;;;;;;6.13;2.83;;;;;;;9.92;100.00;94905.53;5101795;28;20126;-76
2023/03/24 01:37:29;;;;;;;3.70;2.65;;;;;;;9.96;100.00;94899.19;5091971;28;20047;-76
2023/03/24 01:39:55;;;;;;;2.88;2.35;;;;;;;9.95;100.00;94887.22;5096682;28;20083;-75
2023/03/24 01:42:25;;;;;;;3.35;2.60;;;;;;;10.04;100.00;94891.69;5092671;28;20040;-77
2023/03/24 01:44:56;;;;;;;2.92;2.65;;;;;;;9.98;100.00;94886.16;5100336;28;20525;-76
2023/03/24 01:47:23;;;;;;;4.82;2.95;;;;;;;9.89;100.00;94887.66;5097322;28;20063;-76
2023/03/24 01:49:52;;;;;;;3.05;2.80;;;;;;;9.87;100.00;94886.97;5099694;28;20560;-76
2023/03/24 01:52:22;;;;;;;7.53;3.22;;;;;;;9.86;100.00;94874.94;5097740;28;20044;-76
2023/03/24 01:54:52;;;;;;;3.88;3.05;;;;;;;9.82;100.00;94881.28;5092518;28;20399;-76
2023/03/24 01:57:24;;;;;;;3.55;2.83;;;;;;;9.77;100.00;94878.22;5092359;28;20052;-75
2023/03/24 01:59:55;;;;;;;4.03;2.37;;;;;;;9.76;100.00;94885.16;5097188;28;20052;-75
2023/03/24 02:02:21;;;;;;;3.30;2.42;;;;;;;9.78;100.00;94875.53;5099409;28;20477;-76
2023/03/24 02:04:52;;;;;;;3.05;2.75;;;;;;;9.78;100.00;94878.09;5091766;28;20093;-75
2023/03/24 02:07:27;;;;;;;4.00;2.47;;;;;;;9.69;100.00;94878.81;5099295;28;20048;-75
2023/03/24 02:09:54;;;;;;;5.28;2.53;;;;;;;9.76;100.00;94877.41;5092116;28;20040;-75
2023/03/24 02:12:21;;;;;;;7.43;2.88;;;;;;;9.82;100.00;94879.53;5102783;28;20043;-75
2023/03/24 02:14:49;;;;;;;4.55;2.85;;;;;;;9.87;100.00;94882.63;5097565;28;20043;-76
2023/03/24 02:17:38;;;;;;;3.75;2.90;;;;;;;9.85;100.00;94881.06;5096609;28;20056;-75
2023/03/24 02:20:32;;;;;;;3.33;2.92;;;;;;;9.74;100.00;94886.22;5087948;28;20059;-76
2023/03/24 02:23:52;;;;;;;2.10;1.90;;;;;;;9.66;100.00;94890.19;5092544;28;20055;-75
2023/03/24 02:26:59;;;;;;;4.10;2.92;;;;;;;9.69;100.00;94891.72;5095543;28;20048;-75
2023/03/24 02:30:25;;;;;;;2.78;2.33;;;;;;;9.82;100.00;94894.22;5090129;28;20502;-76
2023/03/24 02:33:44;;;;;;;2.47;2.28;;;;;;;9.79;100.00;94879.78;4988050;28;20053;-76
2023/03/24 02:36:35;;;;;;;7.30;3.05;;;;;;;9.84;100.00;94876.84;5004238;28;20049;-75
2023/03/24 02:39:36;;;;;;;2.78;2.47;;;;;;;9.82;100.00;94863.19;5086720;28;20051;-75
2023/03/24 02:42:09;;;;;;;4.57;2.70;;;;;;;9.86;100.00;94857.69;5096443;28;20417;-76
2023/03/24 02:44:46;;;;;;;3.00;2.50;;;;;;;9.85;100.00;94861.19;5090494;28;20054;-75
2023/03/24 02:47:20;;;;;;;5.72;2.90;;;;;;;9.91;100.00;94858.16;5090200;28;20053;-76
2023/03/24 02:49:52;;;;;;;4.35;2.42;;;;;;;9.87;100.00;94856.75;5090676;28;20655;-76
2023/03/24 02:52:22;;;;;;;3.22;2.08;;;;;;;9.90;100.00;94848.78;5095382;28;20055;-76
2023/03/24 02:54:57;;;;;;;6.57;3.03;;;;;;;9.86;100.00;94844.75;5095681;28;20410;-76
2023/03/24 02:57:32;;;;;;;6.55;2.83;;;;;;;9.87;100.00;94840.41;5089652;28;20051;-76
2023/03/24 03:00:07;;;;;;;3.45;2.30;;;;;;;9.92;100.00;94843.47;5087942;28;20387;-75
2023/03/24 03:02:38;;;;;;;4.05;2.78;;;;;;;9.94;100.00;94832.06;5096892;28;20131;-75
2023/03/24 03:05:12;;;;;;;4.80;2.33;;;;;;;9.96;100.00;94831.13;5094808;28;20422;-76
2023/03/24 03:07:41;;;;;;;2.88;2.20;;;;;;;9.97;100.00;94832.78;5095344;28;20067;-76
2023/03/24 03:10:15;;;;;;;4.10;2.55;;;;;;;10.01;100.00;94818.66;5091117;28;20052;-76
2023/03/24 03:12:45;;;;;;;4.35;2.63;;;;;;;9.90;100.00;94825.50;5090446;28;20071;-76
2023/03/24 03:15:16;;;;;;;1.92;1.80;;;;;;;9.91;100.00;94826.31;5096298;28;20046;-76
2023/03/24 03:17:48;;;;;;;3.38;3.00;;;;;;;9.90;100.00;94830.66;5090884;28;20051;-74
2023/03/24 03:20:19;;;;;;;4.60;2.70;;;;;;;9.86;100.00;94833.56;5090927;28;20502;-75
2023/03/24 03:22:50;;;;;;;5.05;2.42;;;;;;;9.98;100.00;94834.44;5091037;28;20048;-76
2023/03/24 03:25:22;;;;;;;2.28;2.08;;;;;;;9.99;100.00;94833.50;5090786;28;20048;-76
2023/03/24 03:27:51;;;;;;;2.50;2.30;;;;;;;9.98;100.00;94837.03;5091061;28;20055;-75
2023/03/24 03:30:23;;;;;;;2.35;2.15;;;;;;;9.92;100.00;94833.94;5091199;28;20490;-75
2023/03/24 03:32:53;;;;;;;2.55;2.20;;;;;;;9.85;100.00;94835.34;5088606;28;20047;-76
2023/03/24 03:35:25;;;;;;;3.80;2.35;;;;;;;9.81;100.00;94833.91;5087022;28;20052;-76
2023/03/24 03:37:58;;;;;;;5.72;2.40;;;;;;;9.78;100.00;94836.72;5090438;28;20044;-75
2023/03/24 03:40:31;;;;;;;2.53;2.10;;;;;;;9.77;100.00;94840.25;5091405;28;20105;-76
2023/03/24 03:42:58;;;;;;;3.38;2.35;;;;;;;9.63;100.00;94838.69;5087386;28;20048;-76
2023/03/24 03:45:25;;;;;;;3.90;2.55;;;;;;;9.63;100.00;94838.69;5098632;28;20059;-76
2023/03/24 03:47:51;;;;;;;4.32;2.38;;;;;;;9.63;100.00;94832.69;5089170;28;20075;-75
2023/03/24 03:50:18;;;;;;;3.65;2.42;;;;;;;9.68;100.00;94836.59;5090920;28;20078;-75
2023/03/24 03:52:45;;;;;;;2.60;2.33;;;;;;;9.61;100.00;94829.41;5093853;28;20040;-75
2023/03/24 03:55:12;;;;;;;7.25;3.05;;;;;;;9.57;100.00;94833.19;5090976;28;20414;-75
2023/03/24 03:57:40;;;;;;;7.47;2.40;;;;;;;9.60;100.00;94830.34;5097438;28;20044;-75
2023/03/24 04:00:10;;;;;;;3.72;2.53;;;;;;;9.66;100.00;94827.31;5090935;28;20409;-75
2023/03/24 04:02:49;;;;;;;4.45;2.20;;;;;;;9.63;100.00;94822.34;5092338;28;20067;-76
2023/03/24 04:05:28;;;;;;;3.72;2.53;;;;;;;9.70;100.00;94823.56;5088597;28;20048;-75
2023/03/24 04:08:25;;;;;;;3.38;2.22;;;;;;;9.69;100.00;94820.16;5073739;28;20059;-75
2023/03/24 04:11:15;;;;;;;3.58;2.10;;;;;;;9.68;100.00;94821.09;5024676;28;20123;-76
2023/03/24 04:13:54;;;;;;;3.38;2.42;;;;;;;9.69;100.00;94816.75;5073916;28;20049;-75
2023/03/24 04:16:31;;;;;;;2.78;2.50;;;;;;;9.65;100.00;94815.31;5073519;28;20060;-75
2023/03/24 04:19:13;;;;;;;2.17;1.88;;;;;;;9.61;100.00;94813.91;5073455;28;20053;-75
2023/03/24 04:21:53;;;;;;;4.90;2.50;;;;;;;9.66;100.00;94819.56;5075782;28;20052;-76
2023/03/24 04:24:38;;;;;;;3.17;2.13;;;;;;;9.75;100.00;94823.22;5075227;28;20048;-76
2023/03/24 04:27:10;;;;;;;6.80;2.00;;;;;;;9.72;100.00;94824.28;5073618;28;20044;-76
2023/03/24 04:29:46;;;;;;;3.75;2.05;;;;;;;9.72;100.00;94826.03;5067633;28;20060;-76
2023/03/24 04:32:19;;;;;;;4.53;2.53;;;;;;;9.61;100.00;94821.66;5073419;28;20041;-76
2023/03/24 04:34:49;;;;;;;3.85;2.63;;;;;;;9.59;100.00;94816.59;5072467;28;20044;-76
2023/03/24 04:37:21;;;;;;;2.67;2.10;;;;;;;9.59;100.00;94815.78;5073177;28;20052;-76
2023/03/24 04:39:50;;;;;;;3.45;1.98;;;;;;;9.57;100.00;94826.25;5076612;28;20049;-76
2023/03/24 04:42:30;;;;;;;2.53;2.10;;;;;;;9.63;100.00;94830.94;5077082;28;20052;-75
2023/03/24 04:44:59;;;;;;;4.28;2.00;;;;;;;9.67;100.00;94834.13;5074237;28;20040;-75
2023/03/24 04:47:30;;;;;;;3.30;2.03;;;;;;;9.69;100.00;94851.19;5073288;28;20063;-75
2023/03/24 04:50:01;;;;;;;2.83;1.95;;;;;;;9.56;100.00;94859.94;5070203;28;20060;-75
2023/03/24 04:52:28;;;;;;;2.35;2.00;;;;;;;9.56;100.00;94863.34;5073210;28;20044;-75
2023/03/24 04:54:55;;;;;;;3.00;2.22;;;;;;;9.52;100.00;94887.78;5073042;28;20564;-75
2023/03/24 04:57:21;;;;;;;4.57;2.47;;;;;;;9.47;100.00;94894.22;5072628;28;20495;-75
2023/03/24 04:59:48;;;;;;;3.75;2.30;;;;;;;9.34;100.00;94895.09;5072625;28;20048;-75
2023/03/24 05:02:16;;;;;;;2.58;1.85;;;;;;;9.28;100.00;94894.72;5074277;28;20048;-75
2023/03/24 05:04:43;;;;;;;3.72;2.22;;;;;;;9.18;100.00;94910.88;5072756;28;20047;-75
2023/03/24 05:07:10;;;;;;;5.22;2.40;;;;;;;9.20;100.00;94914.19;5073757;28;20063;-75
2023/03/24 05:09:36;;;;;;;5.93;1.75;;;;;;;9.25;100.00;94911.25;5073741;28;20411;-75
2023/03/24 05:12:03;;;;;;;2.97;2.20;;;;;;;9.23;100.00;94910.53;5075709;28;20051;-76
2023/03/24 05:14:30;;;;;;;3.80;2.35;;;;;;;9.22;100.00;94911.47;5075054;28;20057;-75
2023/03/24 05:16:56;;;;;;;6.10;2.20;;;;;;;9.26;100.00;94910.31;5074812;28;20048;-76
2023/03/24 05:19:24;;;;;;;2.50;1.92;;;;;;;9.36;100.00;94908.72;5069262;28;20055;-75
2023/03/24 05:21:50;;;;;;;3.65;2.20;;;;;;;9.67;100.00;94909.09;5062835;28;20403;-76
2023/03/24 05:24:17;;;;;;;2.00;1.77;;;;;;;9.74;100.00;94917.25;5073434;28;20060;-75
2023/03/24 05:26:43;;;;;;;2.65;1.80;;;;;;;9.75;100.00;94909.34;5072246;28;20044;-75
2023/03/24 05:29:10;;;;;;;1.92;1.70;;;;;;;9.90;100.00;94915.16;5070580;28;20049;-75
2023/03/24 05:31:36;;;;;;;3.33;2.40;;;;;;;9.89;100.00;94916.09;5075994;28;20047;-75
2023/03/24 05:34:03;;;;;;;3.05;2.58;;;;;;;9.87;100.00;94913.66;5069583;28;20618;-75
2023/03/24 05:36:31;;;;;;;3.78;2.25;;;;;;;9.84;100.00;94915.63;5077498;28;20469;-75
2023/03/24 05:38:57;;;;;;;9.93;2.47;;;;;;;9.81;100.00;94914.09;5071641;28;20276;-75
2023/03/24 05:41:24;;;;;;;3.85;2.22;;;;;;;9.80;100.00;94917.63;5080121;28;20052;-75
2023/03/24 05:43:50;;;;;;;2.33;2.05;;;;;;;9.80;100.00;94916.81;5073998;28;20051;-75
2023/03/24 05:46:16;;;;;;;5.25;2.42;;;;;;;9.84;100.00;94916.47;5071838;28;20048;-75
2023/03/24 05:48:43;;;;;;;4.70;2.30;;;;;;;9.89;100.00;94908.34;5072239;28;20048;-75
2023/03/24 05:51:10;;;;;;;3.38;1.75;;;;;;;9.99;100.00;94914.50;5071662;28;20052;-75
2023/03/24 05:53:37;;;;;;;3.78;2.15;;;;;;;10.03;100.00;94913.34;5074476;28;20052;-76
2023/03/24 05:56:04;;;;;;;2.78;2.17;;;;;;;10.00;100.00;94916.13;5073418;28;20048;-75
2023/03/24 05:58:33;;;;;;;12.52;2.42;;;;;;;9.99;100.00;94913.69;5071591;28;20076;-75
2023/03/24 06:00:59;;;;;;;5.78;2.22;;;;;;;10.05;100.00;94910.63;5071581;28;20407;-75
2023/03/24 06:03:32;;;;;;;3.83;2.63;;;;;;;10.09;100.00;94922.41;5075202;28;20545;-75
2023/03/24 06:05:59;;;;;;;;;;;;;;;10.13;100.00;94918.66;5073527;28;20051;-75
2023/03/24 06:08:27;;;;;;;6.90;2.45;;;;;;;10.13;100.00;94916.88;5073386;28;19935;-75
2023/03/24 06:10:59;;;;;;;9.13;2.72;;;;;;;10.22;100.00;94922.31;5071510;28;20044;-75
2023/03/24 06:13:25;;;;;;;2.25;2.05;;;;;;;10.22;100.00;94917.97;5069367;28;20052;-75
2023/03/24 06:15:53;;;;;;;4.97;2.58;;;;;;;10.24;100.00;94913.50;5067540;28;20056;-75
2023/03/24 06:18:23;;;;;;;3.53;2.47;;;;;;;10.27;100.00;94910.72;5070621;28;20052;-75
2023/03/24 06:20:49;;;;;;;2.25;2.05;;;;;;;10.43;100.00;94919.91;5074061;28;20052;-75
2023/03/24 06:23:16;;;;;;;2.85;2.63;;;;;;;10.46;100.00;94909.34;5073567;28;20088;-75
2023/03/24 06:25:43;;;;;;;2.83;2.20;;;;;;;10.51;100.00;94918.38;5077329;28;20040;-76
2023/03/24 06:28:12;;;;;;;4.82;2.90;;;;;;;10.54;100.00;94922.50;5072242;28;20040;-75
2023/03/24 06:30:39;;;;;;;4.50;2.65;;;;;;;10.51;100.00;94918.38;5074575;28;20052;-74
2023/03/24 06:33:05;;;;;;;2.72;2.00;;;;;;;10.62;100.00;94925.34;5079885;28;20040;-76
2023/03/24 06:35:32;;;;;;;3.25;2.42;;;;;;;10.62;100.00;94918.38;5072138;28;20048;-76
2023/03/24 06:37:58;;;;;;;4.28;2.85;;;;;;;10.72;100.00;94928.88;5072309;28;20139;-76
2023/03/24 06:40:25;;;;;;;8.30;2.97;;;;;;;10.65;100.00;94925.94;5079752;28;20514;-74
2023/03/24 06:42:51;;;;;;;3.70;2.97;;;;;;;10.63;100.00;94926.97;5075573;28;20056;-76
2023/03/24 06:45:19;;;;;;;3.25;2.65;;;;;;;10.63;100.00;94925.22;5075619;28;20048;-76
2023/03/24 06:47:46;;;;;;;3.53;2.35;;;;;;;10.61;100.00;94926.28;5076025;28;20379;-76
2023/03/24 06:50:12;;;;;;;3.17;2.45;;;;;;;10.58;100.00;94921.34;5072805;28;20044;-77
2023/03/24 06:52:40;;;;;;;2.75;2.20;;;;;;;10.54;100.00;94932.88;5072181;28;20083;-77
2023/03/24 06:55:07;;;;;;;2.25;2.00;;;;;;;10.53;100.00;94937.22;5072378;28;20430;-76
2023/03/24 06:57:34;;;;;;;2.80;2.33;;;;;;;10.54;100.00;94938.88;5072185;28;20182;-76
2023/03/24 07:00:00;;;;;;;6.60;2.38;;;;;;;10.45;100.00;94943.91;5073793;28;20052;-77
2023/03/24 07:02:33;;;;;;;5.32;3.25;;;;;;;10.45;100.00;94943.91;5076144;28;20052;-75
2023/03/24 07:04:59;;;;;;;3.90;2.47;;;;;;;10.46;100.00;94943.81;5070877;28;20044;-76
2023/03/24 07:07:26;;;;;;;3.45;2.25;;;;;;;10.40;100.00;94947.66;5073402;28;20080;-76
2023/03/24 07:09:52;;;;;;;2.78;2.42;;;;;;;10.31;100.00;94950.97;5070560;28;20049;-76
2023/03/24 07:12:19;;;;;;;2.65;2.42;;;;;;;10.40;100.00;94955.44;5076246;28;20059;-77
2023/03/24 07:14:45;;;;;;;5.18;2.42;;;;;;;10.34;100.00;94955.06;5076361;28;20139;-77
2023/03/24 07:17:12;;;;;;;3.85;2.20;;;;;;;10.36;100.00;94960.97;5071774;28;20051;-75
2023/03/24 07:19:40;;;;;;;2.72;2.50;;;;;;;10.33;100.00;94962.00;5071111;28;20044;-75
2023/03/24 07:22:07;;;;;;;3.70;2.30;;;;;;;10.32;100.00;94967.31;5070601;28;20044;-75
2023/03/24 07:24:33;;;;;;;2.30;2.10;;;;;;;10.34;100.00;94958.47;5070769;28;20048;-76
2023/03/24 07:27:00;;;;;;;3.35;2.15;;;;;;;10.30;100.00;94962.22;5070867;28;20049;-76
2023/03/24 07:29:26;;;;;;;3.35;2.13;;;;;;;10.34;100.00;94974.00;5069851;28;20053;-76
2023/03/24 07:31:53;;;;;;;2.90;2.55;;;;;;;10.35;100.00;94964.50;5067234;28;20491;-78
2023/03/24 07:34:20;;;;;;;2.47;2.28;;;;;;;10.35;100.00;94969.69;5065347;28;20048;-76
2023/03/24 07:36:47;;;;;;;2.92;2.10;;;;;;;10.38;100.00;94975.44;5074468;28;20048;-76
2023/03/24 07:39:14;;;;;;;3.20;2.17;;;;;;;10.36;100.00;94972.13;5073473;28;20063;-76
2023/03/24 07:41:40;;;;;;;3.88;3.33;;;;;;;10.39;100.00;94971.09;5070849;28;20530;-76
2023/03/24 07:44:07;;;;;;;2.22;2.00;;;;;;;10.40;100.00;94973.56;5074380;28;20122;-76
2023/03/24 07:46:33;;;;;;;4.72;2.28;;;;;;;10.37;100.00;94972.97;5071392;28;20056;-76
2023/03/24 07:49:00;;;;;;;3.78;2.20;;;;;;;10.46;100.00;94976.63;5074205;28;20053;-76
2023/03/24 07:51:27;;;;;;;1.92;1.80;;;;;;;10.43;100.00;94982.88;5074049;28;20056;-76
2023/03/24 07:53:55;;;;;;;2.72;2.17;;;;;;;10.42;100.00;94991.56;5074184;28;20044;-76
2023/03/24 07:56:22;;;;;;;1.80;1.67;;;;;;;10.41;100.00;95000.25;5072330;28;20048;-76
2023/03/24 07:58:49;;;;;;;4.50;2.40;;;;;;;10.47;100.00;95004.16;5073662;28;20052;-76
2023/03/24 08:01:15;;;;;;;2.55;2.13;;;;;;;10.53;100.00;94998.50;5073750;28;20045;-77
2023/03/24 08:03:42;;;;;;;2.10;1.90;;;;;;;10.46;100.00;94999.94;5074181;28;20044;-77
2023/03/24 08:06:09;;;;;;;3.65;2.28;;;;;;;10.46;100.00;94972.28;5073973;28;20052;-77
2023/03/24 08:08:37;;;;;;;2.13;1.63;;;;;;;10.50;100.00;94972.88;5067649;28;20542;-76
2023/03/24 08:11:05;;;;;;;3.22;1.70;;;;;;;10.57;100.00;94971.47;5073632;28;20045;-76
2023/03/24 08:13:31;;;;;;;1.85;1.55;;;;;;;10.57;100.00;94968.88;5073728;28;20098;-77
2023/03/24 08:15:58;;;;;;;2.45;1.50;;;;;;;10.66;100.00;94963.81;5073764;28;20040;-76
2023/03/24 08:18:25;;;;;;;1.95;1.52;;;;;;;10.70;100.00;94966.19;5073777;28;20635;-76
2023/03/24 08:20:56;;;;;;;5.18;1.60;;;;;;;10.74;100.00;94937.34;5073530;28;20052;-76
2023/03/24 08:23:22;;;;;;;3.40;1.85;;;;;;;10.77;100.00;94923.34;5069292;28;20526;-76
2023/03/24 08:25:49;;;;;;;2.28;1.70;;;;;;;10.77;100.00;94906.03;5073599;28;20045;-76
2023/03/24 08:28:17;;;;;;;5.57;1.58;;;;;;;10.80;100.00;94925.69;5073391;28;20048;-76
2023/03/24 08:30:44;;;;;;;2.15;1.60;;;;;;;10.86;100.00;94922.63;5068732;28;20047;-76
2023/03/24 08:33:12;;;;;;;1.90;1.50;;;;;;;10.93;100.00;94889.28;5073632;28;20074;-76
2023/03/24 08:35:39;;;;;;;2.17;1.48;;;;;;;10.89;100.00;94912.84;5073261;28;20052;-76
2023/03/24 08:38:07;;;;;;;3.47;1.65;;;;;;;10.90;100.00;94945.59;5072813;28;20392;-76
2023/03/24 08:40:34;;;;;;;2.88;1.65;;;;;;;10.99;100.00;94938.06;5073034;28;20491;-76
2023/03/24 08:43:03;;;;;;;1.95;1.48;;;;;;;11.08;100.00;94925.19;5070761;28;20507;-76
2023/03/24 08:45:32;;;;;;;2.38;1.67;;;;;;;11.05;100.00;94948.75;5073210;28;20048;-76
2023/03/24 08:48:02;;;;;;;1.67;1.45;;;;;;;11.08;100.00;94960.63;5070377;28;20672;-76
2023/03/24 08:50:33;;;;;;;3.05;2.08;;;;;;;11.10;100.00;94963.94;5073044;28;20623;-76
2023/03/24 08:53:00;;;;;;;1.70;1.60;;;;;;;11.02;100.00;94968.91;5072731;28;20051;-76
2023/03/24 08:55:27;;;;;;;2.10;1.90;;;;;;;10.94;100.00;94959.13;5073156;28;20045;-76
2023/03/24 08:57:53;;;;;;;2.00;1.80;;;;;;;10.95;100.00;94958.19;5072704;28;20046;-76
2023/03/24 09:00:21;;;;;;;5.07;1.45;;;;;;;10.99;100.00;94949.22;5065097;28;20079;-76
2023/03/24 09:02:52;;;;;;;5.78;2.00;;;;;;;11.11;100.00;94958.63;5072771;28;20048;-76
2023/03/24 09:05:20;;;;;;;5.78;1.60;;;;;;;11.07;100.00;94961.59;5073034;28;20037;-76
2023/03/24 09:07:48;;;;;;;1.85;1.73;;;;;;;11.18;100.00;94958.16;5072541;28;20044;-76
2023/03/24 09:10:15;;;;;;;5.68;1.65;;;;;;;11.17;100.00;94948.75;5072919;28;20055;-76
2023/03/24 09:12:43;;;;;;;3.35;1.67;;;;;;;11.16;100.00;94942.75;5072917;28;20049;-76
2023/03/24 09:15:11;;;;;;;3.28;1.75;;;;;;;11.17;100.00;94949.56;5072793;28;20142;-76
2023/03/24 09:17:39;;;;;;;1.83;1.50;;;;;;;11.15;100.00;94962.63;5072632;28;20060;-76
2023/03/24 09:20:10;;;;;;;2.10;1.80;;;;;;;11.23;100.00;94962.03;5071874;28;20404;-76
2023/03/24 09:22:37;;;;;;;4.22;3.60;;;;;;;11.21;100.00;94968.31;5072715;28;20048;-76
2023/03/24 09:25:04;;;;;;;2.17;1.65;;;;;;;11.18;100.00;94953.81;5072675;28;20040;-76
2023/03/24 09:27:31;;;;;;;2.55;2.28;;;;;;;11.24;100.00;94948.16;5072577;28;20052;-76
2023/03/24 09:29:57;;;;;;;2.90;2.10;;;;;;;11.34;100.00;94966.38;5072050;28;20087;-76
2023/03/24 09:32:24;;;;;;;3.85;3.50;;;;;;;11.37;100.00;94969.56;5067701;28;20051;-76
2023/03/24 09:34:50;;;;;;;3.15;1.95;;;;;;;11.43;100.00;94957.91;5072074;28;20487;-77
2023/03/24 09:37:18;;;;;;;2.25;2.03;;;;;;;11.58;100.00;94946.28;5069526;28;20048;-76
2023/03/24 09:39:45;;;;;;;5.38;2.42;;;;;;;11.86;100.00;94939.75;5072216;28;20044;-76
2023/03/24 09:42:19;;;;;;;1.92;1.40;;;;;;;12.20;100.00;94964.72;5072564;28;20055;-76
2023/03/24 09:44:51;;;;;;;2.42;2.17;;;;;;;12.53;100.00;94958.50;5072170;28;20067;-76
2023/03/24 09:47:26;;;;;;;1.55;1.45;;;;;;;12.78;100.00;94945.09;5074612;28;20047;-76
2023/03/24 09:49:55;;;;;;;7.55;4.15;;;;;;;12.92;100.00;94943.13;5072795;28;20053;-75
2023/03/24 09:52:27;;;;;;;9.23;4.80;;;;;;;13.13;100.00;94948.28;5065318;28;20422;-76
2023/03/24 09:54:57;;;;;;;2.90;1.80;;;;;;;13.02;100.00;94950.00;5071640;28;20044;-78
2023/03/24 09:57:28;;;;;;;2.08;1.75;;;;;;;12.95;100.00;94948.06;5070748;28;20091;-76
2023/03/24 09:59:55;;;;;;;2.45;1.38;;;;;;;12.90;100.00;94939.81;5077058;28;20118;-77
2023/03/24 10:02:24;;;;;;;4.35;2.35;;;;;;;12.98;100.00;94943.44;5092062;28;20476;-76
2023/03/24 10:04:50;;;;;;;2.55;1.92;;;;;;;13.05;100.00;94951.50;5091501;28;20040;-76
2023/03/24 10:07:24;;;;;;;2.88;1.40;;;;;;;12.98;100.00;94953.00;5086310;28;20052;-76
2023/03/24 10:09:58;;;;;;;1.52;1.05;;;;;;;13.27;100.00;94940.97;5088927;28;20109;-77
2023/03/24 10:12:35;;;;;;;1.88;1.70;;;;;;;13.34;100.00;94953.41;5088634;28;20453;-78
2023/03/24 10:15:14;;;;;;;2.47;1.35;;;;;;;13.30;100.00;94950.25;5088946;28;20580;-75
2023/03/24 10:17:51;;;;;;;1.40;1.10;;;;;;;13.15;100.00;94954.97;5081807;28;20044;-75
2023/03/24 10:20:32;;;;;;;2.47;1.40;;;;;;;13.17;100.00;94955.66;5085763;28;20044;-75
2023/03/24 10:23:16;;;;;;;5.30;4.10;;;;;;;13.27;100.00;94959.16;5078101;28;20041;-75
2023/03/24 10:25:51;;;;;;;3.38;1.75;;;;;;;13.19;100.00;94950.31;5089587;28;20044;-75
2023/03/24 10:28:20;;;;;;;4.88;2.88;;;;;;;13.08;100.00;94952.06;5086203;28;20044;-75
2023/03/24 10:30:49;;;;;;;6.80;4.60;;;;;;;13.20;100.00;94950.22;5083100;28;20078;-75
2023/03/24 10:33:16;;;;;;;2.30;1.67;;;;;;;13.09;100.00;94965.91;5083413;28;24443;-75
2023/03/24 10:35:50;;;;;;;13.90;8.70;;;;;;;13.02;100.00;94960.41;5096498;28;20506;-75
2023/03/24 10:38:18;;;;;;;;;;;;;;;12.89;100.00;94964.16;5089820;28;20049;-75
2023/03/24 10:40:46;;;;;;;;;;;;;;;12.92;100.00;94975.13;5082966;28;19981;-74
2023/03/24 10:43:13;;;;;;;;;;;;;;;12.95;100.00;94969.66;5092568;28;19963;-74
2023/03/24 10:45:40;;;;;;;;;;;;;;;12.94;100.00;94982.78;5085904;28;20382;-74
2023/03/24 10:48:08;;;;;;;;;;;;;;;12.95;100.00;94989.66;5093640;28;20046;-74
2023/03/24 10:50:36;;;;;;;;;;;;;;;13.19;100.00;94991.91;5093696;28;19920;-75
2023/03/24 10:53:08;;;;;;;;;;;;;;;13.42;100.00;94993.41;5085426;28;20011;-74
2023/03/24 10:55:37;;;;;;;;;;;;;;;13.76;100.00;94991.31;5080484;28;19930;-74
2023/03/24 10:58:14;;;;;;;;;;;;;;;13.89;100.00;94974.59;5088638;28;19953;-74
2023/03/24 11:00:44;;;;;;;;;;;;;;;13.94;100.00;94985.41;5080387;28;19920;-74
2023/03/24 11:03:12;;;;;;;;;;;;;;;13.88;100.00;94988.56;5086208;28;19946;-75
2023/03/24 11:05:39;;;;;;;;;;;;;;;13.94;100.00;94975.84;5079852;28;19924;-75
2023/03/24 11:08:24;;;;;;;;;;;;;;;13.90;100.00;94991.84;5087134;28;19931;-74
2023/03/24 11:10:51;;;;;;;;;;;;;;;13.94;100.00;94996.66;5089457;28;19999;-74
2023/03/24 11:13:20;;;;;;;;;;;;;;;14.01;100.00;95000.34;5086184;28;19921;-74
2023/03/24 11:15:53;;;;;;;;;;;;;;;14.05;100.00;94995.69;5088892;28;19920;-74
2023/03/24 11:18:20;;;;;;;;;;;;;;;14.04;100.00;94999.25;5085779;28;19928;-74
2023/03/24 11:20:50;;;;;;;;;;;;;;;13.94;100.00;95009.69;5091899;28;20328;-74
2023/03/24 11:23:19;;;;;;;;;;;;;;;13.77;100.00;94989.53;5084550;28;19994;-74
2023/03/24 11:25:48;;;;;;;;;;;;;;;13.52;100.00;94996.03;5085094;28;19924;-74
2023/03/24 11:28:16;;;;;;;;;;;;;;;13.39;100.00;95004.09;5085456;28;19920;-74
2023/03/24 11:30:47;;;;;;;;;;;;;;;13.17;100.00;95010.25;5080876;28;20405;-74
2023/03/24 11:33:19;;;;;;;;;;;;;;;13.10;100.00;95008.31;5091072;28;19923;-74
2023/03/24 11:35:46;;;;;;;;;;;;;;;13.05;100.00;95004.34;5090880;28;20499;-74
2023/03/24 11:38:15;;;;;;;;;;;;;;;13.02;100.00;95001.19;5087325;28;19969;-74
2023/03/24 11:40:52;;;;;;;;;;;;;;;13.00;100.00;95005.66;5089614;28;20294;-74
2023/03/24 11:43:20;;;;;;;;;;;;;;;12.93;100.00;94999.34;5086973;28;19920;-74
2023/03/24 11:45:53;;;;;;;;;;;;;;;12.89;100.00;94998.75;5084445;28;19955;-74
2023/03/24 11:48:24;;;;;;;;;;;;;;;12.80;100.00;95000.38;5082196;28;19924;-74
2023/03/24 11:50:51;;;;;;;;;;;;;;;12.71;100.00;95008.91;5091115;28;19953;-75
2023/03/24 11:53:19;;;;;;;;;;;;;;;12.76;100.00;95003.38;5089112;28;19932;-74
2023/03/24 11:55:52;;;;;;;;;;;;;;;12.73;100.00;94996.63;5079254;28;19927;-74